CZ-0116 weather

Dynín Airstrip
Dynín u Třeboně, Czechia

Public forecast

Using degrees Celsius for public forecast. Weather courtesy of forecast.io.

METAR (pilot weather report)

Closest report is Linz Hörsching Airport, 56.6 nm (104.8 km) SSW. Retrieved 2019/08/19 19:20 UTC (5 minutes ago):

LOWL 191920Z 07002KT CAVOK 20/17 Q1020 NOSIG

TAF (pilot weather forecast)

Closest forecast is Linz Hörsching Airport, 56.6 nm (104.8 km) SSW. Retrieved 2019/08/19 18:21 UTC (1 hour ago):

TAF LOWL 191715Z 1918/2018 27004KT 9999 FEW030 BKN090 TX25/2013Z TN17/2003Z BECMG 1920/1923 09005KT SCT012 BKN030 TEMPO 2007/2015 11012KT FEW025 SCT060 TEMPO 2015/2018 27012KT SHRA